Time,TemperatureF,DewpointF,PressureIn,WindDirection,WindDirectionDegrees,WindSpeedMPH,WindSpeedGustMPH,Humidity,HourlyPrecipIn,Conditions,Clouds,dailyrainin,SoftwareType,DateUTC
2013-04-13 00:00:00,66.1,60.1,29.97,NW,314,0.0,26.0,81,0.00,,,0.00,Wunderground v.1.15,2013-04-13 04:00:00,
2013-04-13 00:05:00,66.0,59.7,29.97,NW,320,0.0,26.0,80,0.00,,,0.00,Wunderground v.1.15,2013-04-13 04:05:00,
2013-04-13 00:10:00,65.9,59.9,29.97,NNW,333,0.0,26.0,81,0.00,,,0.00,Wunderground v.1.15,2013-04-13 04:10:00,
2013-04-13 00:15:00,65.9,59.9,29.98,NW,313,0.0,26.0,81,0.00,,,0.00,Wunderground v.1.15,2013-04-13 04:15:00,
2013-04-13 00:20:00,65.8,60.2,29.98,NW,325,0.0,26.0,82,0.00,,,0.00,Wunderground v.1.15,2013-04-13 04:20:00,
2013-04-13 00:30:00,65.6,60.0,29.98,NW,325,0.0,26.0,82,0.00,,,0.00,Wunderground v.1.15,2013-04-13 04:30:00,
2013-04-13 00:35:00,65.6,60.0,29.98,NW,324,0.0,26.0,82,0.00,,,0.00,Wunderground v.1.15,2013-04-13 04:35:00,
2013-04-13 00:40:00,65.5,59.9,29.98,NW,320,0.0,26.0,82,0.00,,,0.00,Wunderground v.1.15,2013-04-13 04:40:00,
2013-04-13 00:50:00,65.4,59.4,29.98,NNW,329,0.0,26.0,81,0.00,,,0.00,Wunderground v.1.15,2013-04-13 04:50:00,
2013-04-13 00:55:00,65.4,59.4,29.98,NNW,327,0.0,26.0,81,0.00,,,0.00,Wunderground v.1.15,2013-04-13 04:55:00,
2013-04-13 01:05:00,65.3,59.0,29.98,NNW,328,0.0,26.0,80,0.00,,,0.00,Wunderground v.1.15,2013-04-13 05:05:00,
2013-04-13 01:10:00,65.3,59.0,29.98,NW,325,0.0,26.0,80,0.00,,,0.00,Wunderground v.1.15,2013-04-13 05:10:00,
2013-04-13 01:20:00,65.3,58.3,29.99,NW,323,0.0,26.0,78,0.00,,,0.00,Wunderground v.1.15,2013-04-13 05:20:00,
2013-04-13 01:25:00,65.3,58.3,29.98,NNW,327,0.0,26.0,78,0.00,,,0.00,Wunderground v.1.15,2013-04-13 05:25:00,
2013-04-13 01:35:00,65.4,58.4,29.98,NNW,333,0.0,26.0,78,0.00,,,0.00,Wunderground v.1.15,2013-04-13 05:35:00,
2013-04-13 01:40:00,65.4,58.4,29.98,NNW,336,0.0,26.0,78,0.00,,,0.00,Wunderground v.1.15,2013-04-13 05:40:00,
2013-04-13 01:45:00,65.4,58.4,29.98,NNW,334,0.0,26.0,78,0.00,,,0.00,Wunderground v.1.15,2013-04-13 05:45:00,
2013-04-13 01:50:00,65.4,58.4,29.98,NNW,344,0.0,26.0,78,0.00,,,0.00,Wunderground v.1.15,2013-04-13 05:50:00,
2013-04-13 02:00:00,65.4,58.0,29.98,NNW,344,0.0,26.0,77,0.00,,,0.00,Wunderground v.1.15,2013-04-13 06:00:00,
2013-04-13 02:05:00,65.3,57.9,29.98,North,355,0.0,26.0,77,0.00,,,0.00,Wunderground v.1.15,2013-04-13 06:05:00,
2013-04-13 02:15:00,65.9,58.1,29.98,North,355,0.0,26.0,76,0.00,,,0.00,Wunderground v.1.15,2013-04-13 06:15:00,
2013-04-13 02:20:00,66.1,57.9,29.97,North,360,0.0,26.0,75,0.00,,,0.00,Wunderground v.1.15,2013-04-13 06:20:00,
2013-04-13 02:25:00,66.3,58.1,29.97,North,360,1.0,26.0,75,0.00,,,0.00,Wunderground v.1.15,2013-04-13 06:25:00,
2013-04-13 02:35:00,66.5,58.7,29.97,NNE,15,2.0,26.0,76,0.00,,,0.00,Wunderground v.1.15,2013-04-13 06:35:00,
2013-04-13 02:40:00,66.7,59.3,29.97,NE,36,3.0,26.0,77,0.00,,,0.00,Wunderground v.1.15,2013-04-13 06:40:00,
2013-04-13 02:50:00,66.7,59.6,29.97,NE,46,8.0,8.0,78,0.00,,,0.00,Wunderground v.1.15,2013-04-13 06:50:00,
2013-04-13 02:55:00,66.6,60.9,29.97,ENE,74,8.0,26.0,82,0.00,,,0.00,Wunderground v.1.15,2013-04-13 06:55:00,
2013-04-13 03:05:00,64.9,59.6,29.97,ENE,72,3.0,26.0,83,0.00,,,0.00,Wunderground v.1.15,2013-04-13 07:05:00,
2013-04-13 03:10:00,64.4,59.8,29.97,ENE,74,0.0,26.0,85,0.00,,,0.00,Wunderground v.1.15,2013-04-13 07:10:00,
2013-04-13 03:20:00,64.0,59.1,29.97,East,98,0.0,26.0,84,0.00,,,0.00,Wunderground v.1.15,2013-04-13 07:20:00,
2013-04-13 03:25:00,63.6,58.3,29.97,East,95,0.0,26.0,83,0.00,,,0.00,Wunderground v.1.15,2013-04-13 07:25:00,
2013-04-13 03:35:00,63.7,57.8,29.97,East,98,3.0,26.0,81,0.00,,,0.00,Wunderground v.1.15,2013-04-13 07:35:00,
2013-04-13 03:40:00,63.6,57.3,29.97,East,86,6.0,6.0,80,0.00,,,0.00,Wunderground v.1.15,2013-04-13 07:40:00,
2013-04-13 03:45:00,63.6,57.0,29.97,East,95,5.0,26.0,79,0.00,,,0.00,Wunderground v.1.15,2013-04-13 07:45:00,
2013-04-13 03:55:00,64.7,57.7,29.96,NE,49,3.0,12.0,78,0.00,,,0.00,Wunderground v.1.15,2013-04-13 07:55:00,
2013-04-13 04:00:00,65.7,56.8,29.96,NE,54,7.0,26.0,73,0.00,,,0.00,Wunderground v.1.15,2013-04-13 08:00:00,
2013-04-13 04:05:00,65.8,56.5,29.97,NE,34,11.0,26.0,72,0.00,,,0.00,Wunderground v.1.15,2013-04-13 08:05:00,
2013-04-13 04:15:00,65.7,56.0,29.96,NE,42,10.0,26.0,71,0.00,,,0.00,Wunderground v.1.15,2013-04-13 08:15:00,
2013-04-13 04:20:00,65.5,55.8,29.97,NE,42,11.0,26.0,71,0.00,,,0.00,Wunderground v.1.15,2013-04-13 08:20:00,
2013-04-13 04:25:00,65.5,56.2,29.97,NE,44,11.0,26.0,72,0.00,,,0.00,Wunderground v.1.15,2013-04-13 08:25:00,
2013-04-13 04:35:00,65.5,56.6,29.97,NE,51,10.0,12.0,73,0.00,,,0.00,Wunderground v.1.15,2013-04-13 08:35:00,
2013-04-13 04:40:00,65.6,55.9,29.97,NE,44,11.0,11.0,71,0.00,,,0.00,Wunderground v.1.15,2013-04-13 08:40:00,
2013-04-13 04:50:00,65.7,56.0,29.97,ENE,62,11.0,26.0,71,0.00,,,0.00,Wunderground v.1.15,2013-04-13 08:50:00,
2013-04-13 04:55:00,65.4,56.5,29.97,East,93,9.0,26.0,73,0.00,,,0.00,Wunderground v.1.15,2013-04-13 08:55:00,
2013-04-13 05:05:00,64.7,55.5,29.97,East,85,7.0,26.0,72,0.00,,,0.00,Wunderground v.1.15,2013-04-13 09:05:00,
2013-04-13 05:10:00,64.1,55.3,29.98,East,95,5.0,5.0,73,0.00,,,0.00,Wunderground v.1.15,2013-04-13 09:10:00,
2013-04-13 05:20:00,64.4,55.9,29.98,ENE,76,3.0,3.0,74,0.00,,,0.00,Wunderground v.1.15,2013-04-13 09:20:00,
2013-04-13 05:25:00,64.9,56.4,29.98,ENE,78,1.0,26.0,74,0.00,,,0.00,Wunderground v.1.15,2013-04-13 09:25:00,
2013-04-13 05:35:00,64.3,55.5,29.98,East,92,0.0,26.0,73,0.00,,,0.00,Wunderground v.1.15,2013-04-13 09:35:00,
2013-04-13 05:55:00,64.8,55.6,29.99,ENE,71,6.0,26.0,72,0.00,,,0.00,Wunderground v.1.15,2013-04-13 09:55:00,
2013-04-13 06:00:00,65.0,56.1,29.99,ENE,76,6.0,26.0,73,0.00,,,0.00,Wunderground v.1.15,2013-04-13 10:00:00,
2013-04-13 06:05:00,65.2,55.9,29.99,ENE,57,6.0,26.0,72,0.00,,,0.00,Wunderground v.1.15,2013-04-13 10:05:00,
2013-04-13 06:15:00,65.9,55.4,29.99,ENE,63,11.0,26.0,69,0.00,,,0.00,Wunderground v.1.15,2013-04-13 10:15:00,
2013-04-13 06:20:00,65.8,55.7,29.99,ENE,64,11.0,26.0,70,0.00,,,0.00,Wunderground v.1.15,2013-04-13 10:20:00,
2013-04-13 06:30:00,65.8,54.9,29.99,ENE,63,12.0,26.0,68,0.00,,,0.00,Wunderground v.1.15,2013-04-13 10:30:00,
2013-04-13 06:35:00,65.9,55.0,29.99,ENE,58,12.0,26.0,68,0.00,,,0.00,Wunderground v.1.15,2013-04-13 10:35:00,
2013-04-13 06:40:00,65.8,55.3,29.99,NNE,32,12.0,26.0,69,0.00,,,0.00,Wunderground v.1.15,2013-04-13 10:40:00,
2013-04-13 06:55:00,65.7,55.2,29.99,NE,41,13.0,26.0,69,0.00,,,0.00,Wunderground v.1.15,2013-04-13 10:55:00,
2013-04-13 07:05:00,65.6,55.5,30.00,NE,50,14.0,26.0,70,0.00,,,0.00,Wunderground v.1.15,2013-04-13 11:05:00,
2013-04-13 07:10:00,65.5,55.1,30.00,NE,48,14.0,26.0,69,0.00,,,0.00,Wunderground v.1.15,2013-04-13 11:10:00,
2013-04-13 07:15:00,65.4,55.4,30.00,NE,38,14.0,26.0,70,0.00,,,0.00,Wunderground v.1.15,2013-04-13 11:15:00,
2013-04-13 07:25:00,65.2,55.9,30.00,NE,45,14.0,17.0,72,0.00,,,0.00,Wunderground v.1.15,2013-04-13 11:25:00,
2013-04-13 07:35:00,65.0,55.8,30.01,NE,44,15.0,26.0,72,0.00,,,0.00,Wunderground v.1.15,2013-04-13 11:35:00,
2013-04-13 07:45:00,64.7,55.5,30.01,NE,44,15.0,16.0,72,0.00,,,0.00,Wunderground v.1.15,2013-04-13 11:45:00,
2013-04-13 07:50:00,64.8,55.9,30.01,NE,40,15.0,15.0,73,0.00,,,0.00,Wunderground v.1.15,2013-04-13 11:50:00,
2013-04-13 07:55:00,64.6,55.0,30.01,NE,39,15.0,17.0,71,0.00,,,0.00,Wunderground v.1.15,2013-04-13 11:55:00,
2013-04-13 08:05:00,64.7,55.1,30.02,NE,49,15.0,26.0,71,0.00,,,0.00,Wunderground v.1.15,2013-04-13 12:05:00,
2013-04-13 08:15:00,64.9,55.7,30.03,ENE,61,15.0,26.0,72,0.00,,,0.00,Wunderground v.1.15,2013-04-13 12:15:00,
2013-04-13 08:20:00,65.0,55.0,30.03,NE,56,16.0,26.0,70,0.00,,,0.00,Wunderground v.1.15,2013-04-13 12:20:00,
2013-04-13 08:30:00,64.9,54.9,30.03,NE,47,17.0,26.0,70,0.00,,,0.00,Wunderground v.1.15,2013-04-13 12:30:00,
2013-04-13 08:35:00,64.9,54.5,30.04,NE,53,16.0,26.0,69,0.00,,,0.00,Wunderground v.1.15,2013-04-13 12:35:00,
2013-04-13 08:40:00,65.0,54.2,30.04,ENE,61,17.0,26.0,68,0.00,,,0.00,Wunderground v.1.15,2013-04-13 12:40:00,
2013-04-13 08:50:00,64.9,54.1,30.04,ENE,66,17.0,26.0,68,0.00,,,0.00,Wunderground v.1.15,2013-04-13 12:50:00,
2013-04-13 08:55:00,64.9,53.3,30.04,ENE,60,17.0,26.0,66,0.00,,,0.00,Wunderground v.1.15,2013-04-13 12:55:00,
2013-04-13 09:05:00,64.6,53.4,30.04,ENE,61,18.0,21.0,67,0.00,,,0.00,Wunderground v.1.15,2013-04-13 13:05:00,
2013-04-13 09:10:00,64.6,53.0,30.04,NE,55,18.0,26.0,66,0.00,,,0.00,Wunderground v.1.15,2013-04-13 13:10:00,
2013-04-13 09:25:00,64.5,53.3,30.05,NE,49,19.0,20.0,67,0.00,,,0.00,Wunderground v.1.15,2013-04-13 13:25:00,
2013-04-13 09:35:00,64.7,53.9,30.04,ENE,62,18.0,26.0,68,0.00,,,0.00,Wunderground v.1.15,2013-04-13 13:35:00,
2013-04-13 09:40:00,64.9,54.1,30.04,ENE,59,18.0,26.0,68,0.00,,,0.00,Wunderground v.1.15,2013-04-13 13:40:00,
2013-04-13 09:50:00,64.8,53.6,30.05,ENE,59,18.0,18.0,67,0.00,,,0.00,Wunderground v.1.15,2013-04-13 13:50:00,
2013-04-13 10:00:00,64.8,53.6,30.04,ENE,62,18.0,26.0,67,0.00,,,0.00,Wunderground v.1.15,2013-04-13 14:00:00,
2013-04-13 10:05:00,65.1,54.3,30.05,ENE,57,19.0,26.0,68,0.00,,,0.00,Wunderground v.1.15,2013-04-13 14:05:00,
2013-04-13 10:15:00,65.2,54.4,30.05,NE,47,18.0,26.0,68,0.00,,,0.00,Wunderground v.1.15,2013-04-13 14:15:00,
2013-04-13 10:20:00,65.2,53.6,30.05,ENE,71,18.0,18.0,66,0.00,,,0.00,Wunderground v.1.15,2013-04-13 14:20:00,
2013-04-13 10:30:00,65.3,52.4,30.05,ENE,67,18.0,26.0,63,0.00,,,0.00,Wunderground v.1.15,2013-04-13 14:30:00,
2013-04-13 10:35:00,65.4,53.3,30.05,ENE,57,18.0,26.0,65,0.00,,,0.00,Wunderground v.1.15,2013-04-13 14:35:00,
2013-04-13 10:45:00,65.4,53.3,30.05,ENE,57,18.0,26.0,65,0.00,,,0.00,Wunderground v.1.15,2013-04-13 14:45:00,
2013-04-13 10:50:00,65.5,52.1,30.05,ENE,61,19.0,26.0,62,0.00,,,0.00,Wunderground v.1.15,2013-04-13 14:50:00,
2013-04-13 10:55:00,65.6,53.1,30.05,ENE,59,18.0,26.0,64,0.00,,,0.00,Wunderground v.1.15,2013-04-13 14:55:00,
2013-04-13 11:00:00,65.6,54.3,30.05,East,79,17.0,26.0,67,0.00,,,0.00,Wunderground v.1.15,2013-04-13 15:00:00,
2013-04-13 11:10:00,65.8,52.9,30.06,ENE,61,15.0,26.0,63,0.00,,,0.00,Wunderground v.1.15,2013-04-13 15:10:00,
2013-04-13 11:15:00,65.7,54.0,30.05,ENE,74,15.0,26.0,66,0.00,,,0.00,Wunderground v.1.15,2013-04-13 15:15:00,
2013-04-13 11:20:00,65.7,52.8,30.05,ENE,70,15.0,26.0,63,0.00,,,0.00,Wunderground v.1.15,2013-04-13 15:20:00,
2013-04-13 11:25:00,65.8,52.9,30.05,ENE,70,16.0,26.0,63,0.00,,,0.00,Wunderground v.1.15,2013-04-13 15:25:00,
2013-04-13 11:35:00,66.2,52.8,30.05,ENE,71,15.0,26.0,62,0.00,,,0.00,Wunderground v.1.15,2013-04-13 15:35:00,
2013-04-13 11:40:00,66.2,53.2,30.05,ENE,67,15.0,15.0,63,0.00,,,0.00,Wunderground v.1.15,2013-04-13 15:40:00,
2013-04-13 11:50:00,66.2,52.8,30.05,ENE,64,15.0,26.0,62,0.00,,,0.00,Wunderground v.1.15,2013-04-13 15:50:00,
2013-04-13 11:55:00,66.1,52.7,30.05,East,80,15.0,26.0,62,0.00,,,0.00,Wunderground v.1.15,2013-04-13 15:55:00,
2013-04-13 12:05:00,66.4,53.0,30.05,ENE,59,14.0,26.0,62,0.00,,,0.00,Wunderground v.1.15,2013-04-13 16:05:00,
2013-04-13 12:10:00,66.5,51.7,30.05,East,80,14.0,14.0,59,0.00,,,0.00,Wunderground v.1.15,2013-04-13 16:10:00,
2013-04-13 12:20:00,66.7,51.5,30.05,ENE,67,12.0,26.0,58,0.00,,,0.00,Wunderground v.1.15,2013-04-13 16:20:00,
2013-04-13 12:25:00,66.8,52.9,30.05,ENE,77,12.0,26.0,61,0.00,,,0.00,Wunderground v.1.15,2013-04-13 16:25:00,
2013-04-13 12:35:00,67.0,51.7,30.04,NE,38,11.0,26.0,58,0.00,,,0.00,Wunderground v.1.15,2013-04-13 16:35:00,
2013-04-13 12:40:00,67.0,52.2,30.04,ENE,59,12.0,12.0,59,0.00,,,0.00,Wunderground v.1.15,2013-04-13 16:40:00,
2013-04-13 12:50:00,67.3,54.3,30.03,NE,55,12.0,26.0,63,0.00,,,0.00,Wunderground v.1.15,2013-04-13 16:50:00,
2013-04-13 13:05:00,67.3,52.9,30.03,NE,53,9.0,26.0,60,0.00,,,0.00,Wunderground v.1.15,2013-04-13 17:05:00,
2013-04-13 13:15:00,67.6,53.7,30.02,NE,40,10.0,26.0,61,0.00,,,0.00,Wunderground v.1.15,2013-04-13 17:15:00,
2013-04-13 13:25:00,67.7,54.6,30.01,NE,50,10.0,26.0,63,0.00,,,0.00,Wunderground v.1.15,2013-04-13 17:25:00,
2013-04-13 13:30:00,67.9,53.5,30.02,NE,55,9.0,26.0,60,0.00,,,0.00,Wunderground v.1.15,2013-04-13 17:30:00,
2013-04-13 13:40:00,68.1,53.2,30.01,ENE,61,10.0,26.0,59,0.00,,,0.00,Wunderground v.1.15,2013-04-13 17:40:00,
2013-04-13 13:50:00,68.5,53.6,30.01,ENE,61,10.0,26.0,59,0.00,,,0.00,Wunderground v.1.15,2013-04-13 17:50:00,
2013-04-13 14:00:00,68.8,53.4,30.01,NE,55,9.0,26.0,58,0.00,,,0.00,Wunderground v.1.15,2013-04-13 18:00:00,
2013-04-13 14:05:00,69.0,52.6,30.01,ENE,59,10.0,26.0,56,0.00,,,0.00,Wunderground v.1.15,2013-04-13 18:05:00,
2013-04-13 14:20:00,69.4,54.0,30.01,NE,46,8.0,8.0,58,0.00,,,0.00,Wunderground v.1.15,2013-04-13 18:20:00,
2013-04-13 14:25:00,69.5,57.2,30.00,NE,44,7.0,26.0,65,0.00,,,0.00,Wunderground v.1.15,2013-04-13 18:25:00,
2013-04-13 14:30:00,69.0,56.3,30.00,NNE,25,4.0,26.0,64,0.00,,,0.00,Wunderground v.1.15,2013-04-13 18:30:00,
2013-04-13 14:35:00,69.3,57.5,30.01,SSE,163,3.0,26.0,66,0.00,,,0.00,Wunderground v.1.15,2013-04-13 18:35:00,
2013-04-13 14:40:00,69.0,55.9,30.00,ESE,123,5.0,26.0,63,0.00,,,0.00,Wunderground v.1.15,2013-04-13 18:40:00,
2013-04-13 14:45:00,68.9,55.8,30.00,ESE,108,6.0,26.0,63,0.00,,,0.00,Wunderground v.1.15,2013-04-13 18:45:00,
2013-04-13 14:50:00,69.0,55.9,30.00,ESE,106,7.0,26.0,63,0.00,,,0.00,Wunderground v.1.15,2013-04-13 18:50:00,
2013-04-13 14:55:00,69.5,56.3,30.00,SE,140,8.0,26.0,63,0.00,,,0.00,Wunderground v.1.15,2013-04-13 18:55:00,
2013-04-13 15:05:00,70.3,57.5,30.00,SE,132,8.0,26.0,64,0.00,,,0.00,Wunderground v.1.15,2013-04-13 19:05:00,
2013-04-13 15:10:00,69.7,57.0,30.00,SSE,152,9.0,26.0,64,0.00,,,0.00,Wunderground v.1.15,2013-04-13 19:10:00,
2013-04-13 15:20:00,69.8,56.6,30.00,SE,144,10.0,26.0,63,0.00,,,0.00,Wunderground v.1.15,2013-04-13 19:20:00,
2013-04-13 15:25:00,69.5,55.5,29.99,SE,140,10.0,26.0,61,0.00,,,0.00,Wunderground v.1.15,2013-04-13 19:25:00,
2013-04-13 15:35:00,69.2,56.1,29.98,SE,138,9.0,26.0,63,0.00,,,0.00,Wunderground v.1.15,2013-04-13 19:35:00,
2013-04-13 15:40:00,69.2,56.5,29.98,ESE,111,9.0,26.0,64,0.00,,,0.00,Wunderground v.1.15,2013-04-13 19:40:00,
2013-04-13 15:50:00,68.9,57.1,29.97,SE,124,9.0,26.0,66,0.00,,,0.00,Wunderground v.1.15,2013-04-13 19:50:00,
2013-04-13 15:55:00,68.8,55.2,29.97,SE,128,10.0,26.0,62,0.00,,,0.00,Wunderground v.1.15,2013-04-13 19:55:00,
2013-04-13 16:00:00,68.9,56.2,29.96,SE,130,11.0,11.0,64,0.00,,,0.00,Wunderground v.1.15,2013-04-13 20:00:00,
2013-04-13 16:10:00,69.2,56.9,29.96,ESE,110,6.0,26.0,65,0.00,,,0.00,Wunderground v.1.15,2013-04-13 20:10:00,
2013-04-13 16:15:00,69.1,56.4,29.96,East,101,7.0,26.0,64,0.00,,,0.00,Wunderground v.1.15,2013-04-13 20:15:00,
2013-04-13 16:20:00,68.8,56.1,29.97,ESE,113,8.0,26.0,64,0.00,,,0.00,Wunderground v.1.15,2013-04-13 20:20:00,
2013-04-13 16:30:00,69.8,56.2,29.97,SE,144,9.0,26.0,62,0.00,,,0.00,Wunderground v.1.15,2013-04-13 20:30:00,
2013-04-13 16:40:00,69.5,56.8,29.97,SE,128,9.0,9.0,64,0.00,,,0.00,Wunderground v.1.15,2013-04-13 20:40:00,
2013-04-13 16:50:00,69.5,56.8,29.97,SE,126,11.0,26.0,64,0.00,,,0.00,Wunderground v.1.15,2013-04-13 20:50:00,
2013-04-13 16:55:00,69.5,55.9,29.96,SE,126,11.0,26.0,62,0.00,,,0.00,Wunderground v.1.15,2013-04-13 20:55:00,
2013-04-13 17:00:00,69.3,57.0,29.96,South,173,11.0,11.0,65,0.00,,,0.00,Wunderground v.1.15,2013-04-13 21:00:00,
2013-04-13 17:05:00,69.6,56.0,29.97,South,176,11.0,26.0,62,0.00,,,0.00,Wunderground v.1.15,2013-04-13 21:05:00,
2013-04-13 17:15:00,70.3,56.7,29.96,SSE,157,12.0,26.0,62,0.00,,,0.00,Wunderground v.1.15,2013-04-13 21:15:00,
2013-04-13 17:25:00,70.3,57.1,29.96,South,169,11.0,26.0,63,0.00,,,0.00,Wunderground v.1.15,2013-04-13 21:25:00,
2013-04-13 17:30:00,69.9,57.2,29.96,SE,126,11.0,26.0,64,0.00,,,0.00,Wunderground v.1.15,2013-04-13 21:30:00,
2013-04-13 17:35:00,69.3,55.7,29.96,SE,125,11.0,26.0,62,0.00,,,0.00,Wunderground v.1.15,2013-04-13 21:35:00,
2013-04-13 17:40:00,69.0,56.3,29.96,SE,132,11.0,11.0,64,0.00,,,0.00,Wunderground v.1.15,2013-04-13 21:40:00,
2013-04-13 17:50:00,68.9,55.3,29.97,SSE,157,11.0,11.0,62,0.00,,,0.00,Wunderground v.1.15,2013-04-13 21:50:00,
2013-04-13 17:55:00,68.8,55.2,29.96,SSE,163,11.0,26.0,62,0.00,,,0.00,Wunderground v.1.15,2013-04-13 21:55:00,
2013-04-13 18:05:00,68.7,55.6,29.96,ESE,115,10.0,26.0,63,0.00,,,0.00,Wunderground v.1.15,2013-04-13 22:05:00,
2013-04-13 18:10:00,68.6,55.9,29.95,ESE,123,11.0,26.0,64,0.00,,,0.00,Wunderground v.1.15,2013-04-13 22:10:00,
2013-04-13 18:20:00,68.6,55.9,29.94,ESE,117,10.0,10.0,64,0.00,,,0.00,Wunderground v.1.15,2013-04-13 22:20:00,
2013-04-13 18:25:00,68.6,56.8,29.93,ESE,102,9.0,26.0,66,0.00,,,0.00,Wunderground v.1.15,2013-04-13 22:25:00,
2013-04-13 18:35:00,68.8,56.6,29.93,SE,125,9.0,26.0,65,0.00,,,0.00,Wunderground v.1.15,2013-04-13 22:35:00,
2013-04-13 18:40:00,68.6,55.5,29.92,SE,130,15.0,26.0,63,0.00,,,0.00,Wunderground v.1.15,2013-04-13 22:40:00,
2013-04-13 18:50:00,68.4,57.0,29.92,SE,124,16.0,26.0,67,0.00,,,0.00,Wunderground v.1.15,2013-04-13 22:50:00,
2013-04-13 19:00:00,68.5,57.5,29.92,ESE,121,14.0,26.0,68,0.00,,,0.00,Wunderground v.1.15,2013-04-13 23:00:00,
2013-04-13 19:10:00,68.5,57.9,29.92,ESE,120,16.0,26.0,69,0.00,,,0.00,Wunderground v.1.15,2013-04-13 23:10:00,
2013-04-13 19:15:00,68.4,57.8,29.92,SSE,156,15.0,26.0,69,0.00,,,0.00,Wunderground v.1.15,2013-04-13 23:15:00,
2013-04-13 19:20:00,68.4,58.2,29.92,ESE,117,14.0,26.0,70,0.00,,,0.00,Wunderground v.1.15,2013-04-13 23:20:00,
2013-04-13 19:30:00,68.3,58.5,29.92,SSE,159,13.0,13.0,71,0.00,,,0.00,Wunderground v.1.15,2013-04-13 23:30:00,
2013-04-13 19:35:00,68.3,57.3,29.92,SE,134,12.0,26.0,68,0.00,,,0.00,Wunderground v.1.15,2013-04-13 23:35:00,
2013-04-13 19:40:00,68.3,57.3,29.93,South,182,12.0,12.0,68,0.00,,,0.00,Wunderground v.1.15,2013-04-13 23:40:00,
2013-04-13 19:50:00,68.3,58.1,29.93,SSE,159,12.0,26.0,70,0.00,,,0.00,Wunderground v.1.15,2013-04-13 23:50:00,
2013-04-13 19:55:00,68.2,58.4,29.93,SSE,160,13.0,26.0,71,0.00,,,0.00,Wunderground v.1.15,2013-04-13 23:55:00,
2013-04-13 20:05:00,68.2,58.4,29.92,SE,138,13.0,26.0,71,0.00,,,0.00,Wunderground v.1.15,2013-04-14 00:05:00,
2013-04-13 20:10:00,68.2,58.4,29.92,SE,145,11.0,11.0,71,0.00,,,0.00,Wunderground v.1.15,2013-04-14 00:10:00,
2013-04-13 20:20:00,68.2,58.0,29.92,SSE,153,10.0,26.0,70,0.00,,,0.00,Wunderground v.1.15,2013-04-14 00:20:00,
2013-04-13 20:25:00,68.2,57.6,29.92,SE,127,12.0,26.0,69,0.00,,,0.00,Wunderground v.1.15,2013-04-14 00:25:00,
2013-04-13 20:35:00,68.3,58.1,29.91,SE,131,13.0,17.0,70,0.00,,,0.00,Wunderground v.1.15,2013-04-14 00:35:00,
2013-04-13 20:40:00,68.3,57.7,29.91,ESE,115,16.0,16.0,69,0.00,,,0.00,Wunderground v.1.15,2013-04-14 00:40:00,
2013-04-13 20:45:00,68.3,58.1,29.91,ESE,103,17.0,17.0,70,0.00,,,0.00,Wunderground v.1.15,2013-04-14 00:45:00,
2013-04-13 20:55:00,68.2,58.4,29.90,ESE,123,15.0,26.0,71,0.00,,,0.00,Wunderground v.1.15,2013-04-14 00:55:00,
2013-04-13 21:00:00,68.1,58.3,29.89,ESE,107,12.0,12.0,71,0.00,,,0.00,Wunderground v.1.15,2013-04-14 01:00:00,
2013-04-13 21:05:00,68.0,58.6,29.89,ESE,111,11.0,26.0,72,0.00,,,0.00,Wunderground v.1.15,2013-04-14 01:05:00,
2013-04-13 21:15:00,68.0,59.0,29.92,SSE,155,9.0,13.0,73,0.00,,,0.00,Wunderground v.1.15,2013-04-14 01:15:00,
2013-04-13 21:20:00,68.0,57.8,29.93,SE,144,10.0,26.0,70,0.00,,,0.00,Wunderground v.1.15,2013-04-14 01:20:00,
2013-04-13 21:25:00,68.1,57.1,29.93,SE,131,12.0,26.0,68,0.00,,,0.00,Wunderground v.1.15,2013-04-14 01:25:00,
2013-04-13 21:40:00,68.3,57.7,29.94,SSE,167,14.0,26.0,69,0.00,,,0.00,Wunderground v.1.15,2013-04-14 01:40:00,
2013-04-13 21:50:00,68.7,58.5,29.95,SSE,161,14.0,26.0,70,0.00,,,0.00,Wunderground v.1.15,2013-04-14 01:50:00,
2013-04-13 21:55:00,68.6,58.8,29.95,South,171,12.0,26.0,71,0.00,,,0.00,Wunderground v.1.15,2013-04-14 01:55:00,
2013-04-13 22:05:00,68.5,59.5,29.95,SSE,161,9.0,26.0,73,0.00,,,0.00,Wunderground v.1.15,2013-04-14 02:05:00,
2013-04-13 22:10:00,68.5,59.1,29.95,SSE,153,9.0,26.0,72,0.00,,,0.00,Wunderground v.1.15,2013-04-14 02:10:00,
2013-04-13 22:20:00,68.6,56.8,29.95,SE,133,8.0,26.0,66,0.00,,,0.00,Wunderground v.1.15,2013-04-14 02:20:00,
2013-04-13 22:25:00,68.8,57.4,29.95,SSE,163,9.0,26.0,67,0.00,,,0.00,Wunderground v.1.15,2013-04-14 02:25:00,
2013-04-13 22:30:00,68.8,57.8,29.95,SSE,150,9.0,26.0,68,0.00,,,0.00,Wunderground v.1.15,2013-04-14 02:30:00,
2013-04-13 22:40:00,68.7,59.3,29.94,SSE,149,8.0,8.0,72,0.00,,,0.00,Wunderground v.1.15,2013-04-14 02:40:00,
2013-04-13 22:45:00,68.5,59.5,29.94,SE,136,7.0,26.0,73,0.00,,,0.00,Wunderground v.1.15,2013-04-14 02:45:00,
2013-04-13 22:50:00,68.5,59.1,29.94,SSE,151,7.0,7.0,72,0.00,,,0.00,Wunderground v.1.15,2013-04-14 02:50:00,
2013-04-13 23:00:00,68.5,59.9,29.95,SE,142,9.0,9.0,74,0.00,,,0.00,Wunderground v.1.15,2013-04-14 03:00:00,
2013-04-13 23:05:00,68.5,60.3,29.94,SSE,161,9.0,13.0,75,0.00,,,0.00,Wunderground v.1.15,2013-04-14 03:05:00,
2013-04-13 23:10:00,68.4,59.8,29.94,SSE,155,8.0,26.0,74,0.00,,,0.00,Wunderground v.1.15,2013-04-14 03:10:00,
2013-04-13 23:20:00,68.4,60.5,29.94,SE,130,7.0,26.0,76,0.00,,,0.00,Wunderground v.1.15,2013-04-14 03:20:00,
2013-04-13 23:25:00,68.4,60.5,29.94,SSE,163,7.0,26.0,76,0.00,,,0.00,Wunderground v.1.15,2013-04-14 03:25:00,
2013-04-13 23:35:00,68.4,60.5,29.94,SE,134,7.0,26.0,76,0.00,,,0.00,Wunderground v.1.15,2013-04-14 03:35:00,
2013-04-13 23:40:00,68.4,60.5,29.94,SE,124,7.0,7.0,76,0.00,,,0.00,Wunderground v.1.15,2013-04-14 03:40:00,
2013-04-13 23:50:00,68.5,60.6,29.94,SE,126,7.0,26.0,76,0.00,,,0.00,Wunderground v.1.15,2013-04-14 03:50:00,
2013-04-13 23:55:00,68.4,60.9,29.94,ESE,104,7.0,26.0,77,0.00,,,0.00,Wunderground v.1.15,2013-04-14 03:55:00,